createdAt,value
2022-11-10T00:01:51.298Z,81.70
2022-11-10T00:04:18.385Z,81.70
2022-11-10T00:06:48.747Z,81.80
2022-11-10T00:09:16.188Z,81.70
2022-11-10T00:11:43.267Z,82.00
2022-11-10T00:14:28.735Z,82.00
2022-11-10T00:17:01.482Z,82.20
2022-11-10T00:19:33.152Z,82.10
2022-11-10T00:22:01.711Z,81.90
2022-11-10T00:24:29.371Z,82.70
2022-11-10T00:26:56.368Z,82.40
2022-11-10T00:29:23.473Z,82.50
2022-11-10T00:31:50.270Z,82.50
2022-11-10T00:34:17.589Z,82.50
2022-11-10T00:36:44.620Z,82.50
2022-11-10T00:39:12.462Z,82.50
2022-11-10T00:41:39.291Z,82.60
2022-11-10T00:44:06.062Z,82.80
2022-11-10T00:46:32.860Z,82.90
2022-11-10T00:48:59.828Z,83.00
2022-11-10T00:51:29.601Z,83.00
2022-11-10T00:53:57.288Z,83.00
2022-11-10T00:56:25.231Z,82.90
2022-11-10T00:58:52.375Z,82.80
2022-11-10T01:01:22.285Z,82.90
2022-11-10T01:03:49.164Z,83.00
2022-11-10T01:06:18.622Z,82.90
2022-11-10T01:08:46.362Z,83.10
2022-11-10T01:11:32.659Z,83.20
2022-11-10T01:13:59.471Z,83.00
2022-11-10T01:16:30.267Z,83.00
2022-11-10T01:19:01.414Z,82.80
2022-11-10T01:21:30.004Z,82.80
2022-11-10T01:23:57.593Z,83.10
2022-11-10T01:26:25.031Z,83.30
2022-11-10T01:28:53.102Z,83.40
2022-11-10T01:31:22.604Z,83.50
2022-11-10T01:33:49.873Z,83.50
2022-11-10T01:36:16.994Z,83.50
2022-11-10T01:38:44.376Z,83.40
2022-11-10T01:41:14.423Z,83.90
2022-11-10T01:43:41.531Z,83.50
2022-11-10T01:46:13.389Z,83.60
2022-11-10T01:49:00.343Z,83.60
2022-11-10T01:51:39.737Z,82.40
2022-11-10T01:54:15.626Z,83.00
2022-11-10T01:56:53.206Z,82.90
2022-11-10T01:59:27.444Z,82.80
2022-11-10T02:02:01.939Z,83.20
2022-11-10T02:04:30.541Z,83.40
2022-11-10T02:06:57.596Z,83.20
2022-11-10T02:09:24.575Z,83.20
2022-11-10T02:11:54.207Z,83.30
2022-11-10T02:14:21.312Z,83.40
2022-11-10T02:16:48.423Z,83.60
2022-11-10T02:19:24.161Z,83.70
2022-11-10T02:21:51.416Z,83.80
2022-11-10T02:24:18.264Z,84.00
2022-11-10T02:26:56.394Z,83.90
2022-11-10T02:29:25.836Z,83.40
2022-11-10T02:31:53.036Z,84.20
2022-11-10T02:34:19.857Z,84.40
2022-11-10T02:36:46.689Z,84.10
2022-11-10T02:39:13.483Z,84.20
2022-11-10T02:41:40.292Z,84.30
2022-11-10T02:44:07.856Z,84.10
2022-11-10T02:46:37.468Z,84.10
2022-11-10T02:49:04.734Z,84.20
2022-11-10T02:51:31.509Z,84.10
2022-11-10T02:53:58.383Z,84.20
2022-11-10T02:56:25.309Z,84.20
2022-11-10T02:58:52.115Z,84.60
2022-11-10T03:01:18.945Z,84.00
2022-11-10T03:03:45.761Z,83.90
2022-11-10T03:06:12.573Z,84.00
2022-11-10T03:08:39.601Z,84.10
2022-11-10T03:11:06.811Z,84.30
2022-11-10T03:13:51.561Z,84.20
2022-11-10T03:16:20.421Z,84.20
2022-11-10T03:18:47.262Z,84.10
2022-11-10T03:21:14.115Z,83.90
2022-11-10T03:23:40.919Z,84.10
2022-11-10T03:26:08.015Z,84.20
2022-11-10T03:28:35.319Z,84.00
2022-11-10T03:31:02.141Z,83.60
2022-11-10T03:33:28.957Z,83.60
2022-11-10T03:35:55.742Z,83.60
2022-11-10T03:38:22.560Z,83.70
2022-11-10T03:41:17.682Z,83.60
2022-11-10T03:43:38.087Z,83.20
2022-11-10T03:46:04.998Z,83.20
2022-11-10T03:48:31.817Z,83.30
2022-11-10T03:50:58.715Z,83.20
2022-11-10T03:53:25.725Z,83.30
2022-11-10T03:55:52.608Z,83.50
2022-11-10T03:58:19.566Z,83.60
2022-11-10T04:00:46.360Z,83.80
2022-11-10T04:03:13.224Z,83.70
2022-11-10T04:05:58.511Z,83.90
2022-11-10T04:08:43.891Z,84.10
2022-11-10T04:11:10.756Z,84.10
2022-11-10T04:13:56.238Z,84.10
2022-11-10T04:16:23.047Z,84.50
2022-11-10T04:18:49.844Z,84.40
2022-11-10T04:21:16.718Z,84.60
2022-11-10T04:23:43.503Z,84.70
2022-11-10T04:26:28.930Z,84.80
2022-11-10T04:29:02.092Z,85.00
2022-11-10T04:31:31.985Z,84.90
2022-11-10T04:33:59.763Z,85.10
2022-11-10T04:36:30.527Z,85.00
2022-11-10T04:38:57.972Z,84.70
2022-11-10T04:41:27.172Z,84.60
2022-11-10T04:43:54.512Z,84.70
2022-11-10T04:46:30.295Z,84.90
2022-11-10T04:48:58.149Z,84.70
2022-11-10T04:51:33.491Z,84.90
2022-11-10T04:54:01.325Z,84.80
2022-11-10T04:56:29.300Z,84.90
2022-11-10T04:58:57.209Z,84.70
2022-11-10T05:01:27.715Z,84.50
2022-11-10T05:03:55.664Z,84.20
2022-11-10T05:06:23.333Z,84.20
2022-11-10T05:08:50.749Z,84.30
2022-11-10T05:11:18.681Z,84.50
2022-11-10T05:13:46.633Z,84.50
2022-11-10T05:16:14.111Z,84.60
2022-11-10T05:18:41.744Z,84.60
2022-11-10T05:21:08.724Z,84.80
2022-11-10T05:23:38.612Z,84.80
2022-11-10T05:26:15.668Z,84.60
2022-11-10T05:28:45.197Z,84.00
2022-11-10T05:31:12.965Z,84.60
2022-11-10T05:33:40.564Z,84.60
2022-11-10T05:36:10.034Z,84.60
2022-11-10T05:38:42.919Z,84.40
2022-11-10T05:41:10.633Z,84.50
2022-11-10T05:43:37.669Z,84.50
2022-11-10T05:46:04.640Z,84.40
2022-11-10T05:48:31.487Z,84.40
2022-11-10T05:50:58.296Z,84.30
2022-11-10T05:53:25.444Z,84.30
2022-11-10T05:55:52.452Z,84.40
2022-11-10T05:58:19.294Z,84.30
2022-11-10T06:00:46.109Z,84.30
2022-11-10T06:03:16.704Z,84.40
2022-11-10T06:05:43.925Z,84.50
2022-11-10T06:08:10.936Z,84.70
2022-11-10T06:10:39.384Z,84.80
2022-11-10T06:13:06.492Z,85.00
2022-11-10T06:15:33.525Z,85.40
2022-11-10T06:18:00.479Z,86.20
2022-11-10T06:20:28.323Z,86.50
2022-11-10T06:23:03.023Z,86.40
2022-11-10T06:25:35.613Z,85.60
2022-11-10T06:28:04.318Z,86.30
2022-11-10T06:30:33.417Z,86.00
2022-11-10T06:33:00.757Z,86.00
2022-11-10T06:35:28.983Z,85.90
2022-11-10T06:38:09.177Z,85.70
2022-11-10T06:40:36.049Z,84.50
2022-11-10T06:43:03.302Z,85.80
2022-11-10T06:45:30.489Z,85.90
2022-11-10T06:48:11.176Z,85.90
2022-11-10T06:50:38.179Z,85.00
2022-11-10T06:53:05.699Z,85.70
2022-11-10T06:55:32.850Z,85.70
2022-11-10T06:57:59.792Z,85.60
2022-11-10T07:00:29.285Z,85.60
2022-11-10T07:03:03.926Z,85.70
2022-11-10T07:05:33.696Z,85.20
2022-11-10T07:08:13.751Z,85.60
2022-11-10T07:10:40.615Z,84.40
2022-11-10T07:13:07.438Z,85.10
2022-11-10T07:15:34.432Z,84.90
2022-11-10T07:18:02.879Z,84.70
2022-11-10T07:20:33.316Z,84.30
2022-11-10T07:23:06.389Z,83.90
2022-11-10T07:25:36.384Z,83.60
2022-11-10T07:28:07.082Z,83.30
2022-11-10T07:30:35.293Z,83.10
2022-11-10T07:33:11.499Z,83.20
2022-11-10T07:35:39.051Z,83.70
2022-11-10T07:38:12.588Z,84.40
2022-11-10T07:40:40.036Z,85.60
2022-11-10T07:43:07.228Z,87.30
2022-11-10T07:45:34.085Z,88.20
2022-11-10T07:48:07.111Z,88.30
2022-11-10T07:50:34.584Z,87.10
2022-11-10T07:53:11.878Z,87.00
2022-11-10T07:55:42.270Z,85.70
2022-11-10T07:58:10.743Z,86.20
2022-11-10T08:00:38.724Z,86.60
2022-11-10T08:03:14.375Z,86.50
2022-11-10T08:05:42.019Z,86.50
2022-11-10T08:08:09.662Z,86.20
2022-11-10T08:10:38.004Z,86.00
2022-11-10T08:13:08.687Z,85.80
2022-11-10T08:15:36.481Z,85.50
2022-11-10T08:18:23.665Z,85.50
2022-11-10T08:21:10.800Z,85.40
2022-11-10T08:23:37.577Z,90.10
2022-11-10T08:26:04.527Z,90.80
2022-11-10T08:28:31.417Z,90.70
2022-11-10T08:31:02.843Z,90.50
2022-11-10T08:33:32.112Z,90.30
2022-11-10T08:36:02.854Z,90.10
2022-11-10T08:38:29.704Z,87.60
2022-11-10T08:40:57.617Z,87.00
2022-11-10T08:43:25.249Z,85.20
2022-11-10T08:45:58.456Z,83.10
2022-11-10T08:48:25.499Z,80.90
2022-11-10T08:50:52.369Z,81.70
2022-11-10T08:53:23.987Z,81.50
2022-11-10T08:55:53.171Z,81.50
2022-11-10T08:58:23.886Z,82.50
2022-11-10T09:00:51.797Z,83.10
2022-11-10T09:03:25.077Z,83.30
2022-11-10T09:05:57.979Z,80.30
2022-11-10T09:08:26.411Z,81.90
2022-11-10T09:10:53.319Z,82.00
2022-11-10T09:13:29.341Z,81.80
2022-11-10T09:16:05.150Z,79.90
2022-11-10T09:18:32.453Z,77.90
2022-11-10T09:20:59.326Z,79.60
2022-11-10T09:23:26.447Z,82.80
2022-11-10T09:25:55.957Z,84.00
2022-11-10T09:28:24.129Z,83.20
2022-11-10T09:30:53.772Z,83.10
2022-11-10T09:33:21.006Z,78.70
2022-11-10T09:35:48.176Z,79.10
2022-11-10T09:38:15.064Z,79.30
2022-11-10T09:41:02.995Z,79.50
2022-11-10T09:43:44.372Z,75.20
2022-11-10T09:46:41.643Z,76.00
2022-11-10T09:49:39.182Z,69.90
2022-11-10T09:52:08.482Z,72.70
2022-11-10T09:55:15.071Z,77.50
2022-11-10T09:57:48.699Z,70.20
2022-11-10T10:00:18.089Z,76.30
2022-11-10T10:03:03.041Z,77.20
2022-11-10T10:05:57.630Z,72.20
2022-11-10T10:08:43.005Z,75.20
2022-11-10T10:11:53.721Z,73.50
2022-11-10T10:14:52.500Z,74.70
2022-11-10T10:17:42.430Z,78.20
2022-11-10T10:20:39.992Z,76.90
2022-11-10T10:23:24.151Z,76.40
2022-11-10T10:25:57.712Z,77.80
2022-11-10T10:28:39.602Z,79.80
2022-11-10T10:31:23.734Z,75.00
2022-11-10T10:33:51.274Z,76.40
2022-11-10T10:36:30.812Z,80.40
2022-11-10T10:39:11.417Z,76.00
2022-11-10T10:41:38.746Z,78.30
2022-11-10T10:44:16.722Z,78.70
2022-11-10T10:46:50.669Z,75.70
2022-11-10T10:49:28.465Z,79.30
2022-11-10T10:52:17.720Z,79.70
2022-11-10T10:54:44.554Z,73.40
2022-11-10T10:57:28.192Z,80.30
2022-11-10T11:00:21.573Z,71.80
2022-11-10T11:03:12.928Z,68.30
2022-11-10T11:05:39.745Z,69.80
2022-11-10T11:08:16.680Z,75.30
2022-11-10T11:10:46.397Z,75.20
2022-11-10T11:13:27.601Z,74.10
2022-11-10T11:16:12.778Z,68.90
2022-11-10T11:18:40.693Z,68.20
2022-11-10T11:21:37.618Z,73.60
2022-11-10T11:24:43.876Z,73.00
2022-11-10T11:27:42.933Z,70.40
2022-11-10T11:30:13.695Z,64.50
2022-11-10T11:33:06.389Z,75.50
2022-11-10T11:36:38.249Z,69.10
2022-11-10T11:39:28.942Z,65.70
2022-11-10T11:42:26.336Z,67.90
2022-11-10T11:45:18.467Z,64.30
2022-11-10T11:48:33.193Z,65.70
2022-11-10T11:51:18.364Z,63.30
2022-11-10T11:54:22.445Z,66.00
2022-11-10T11:56:50.753Z,64.40
2022-11-10T11:59:43.964Z,70.40
2022-11-10T12:03:06.789Z,67.60
2022-11-10T12:05:52.719Z,65.40
2022-11-10T12:08:22.781Z,67.70
2022-11-10T12:11:14.354Z,70.40
2022-11-10T12:14:31.324Z,66.80
2022-11-10T12:17:36.467Z,66.70
2022-11-10T12:20:18.764Z,64.80
2022-11-10T12:23:19.508Z,70.20
2022-11-10T12:26:09.236Z,67.80
2022-11-10T12:29:16.965Z,69.70
2022-11-10T12:31:48.940Z,65.50
2022-11-10T12:34:36.482Z,68.60
2022-11-10T12:37:07.764Z,64.10
2022-11-10T12:40:02.767Z,67.90
2022-11-10T12:42:33.776Z,61.80
2022-11-10T12:45:02.465Z,68.60
2022-11-10T12:47:39.209Z,67.50
2022-11-10T12:50:32.420Z,67.70
2022-11-10T12:53:07.838Z,63.00
2022-11-10T12:55:42.831Z,68.10
2022-11-10T12:58:14.083Z,69.10
2022-11-10T13:01:02.743Z,69.10
2022-11-10T13:03:37.277Z,65.00
2022-11-10T13:06:22.746Z,67.30
2022-11-10T13:08:50.637Z,68.50
2022-11-10T13:11:17.378Z,69.10
2022-11-10T13:13:59.091Z,68.40
2022-11-10T13:16:38.895Z,64.90
2022-11-10T13:19:11.671Z,64.50
2022-11-10T13:21:56.507Z,67.20
2022-11-10T13:24:33.299Z,61.30
2022-11-10T13:27:13.044Z,68.00
2022-11-10T13:29:45.835Z,69.80
2022-11-10T13:32:15.583Z,66.70
2022-11-10T13:34:46.333Z,66.50
2022-11-10T13:37:35.138Z,65.70
2022-11-10T13:40:20.114Z,59.30
2022-11-10T13:42:59.072Z,61.20
2022-11-10T13:45:40.050Z,61.20
2022-11-10T13:48:12.791Z,63.70
2022-11-10T13:51:12.541Z,64.80
2022-11-10T13:54:07.406Z,59.00
2022-11-10T13:57:36.026Z,60.10
2022-11-10T14:00:34.897Z,58.80
2022-11-10T14:03:07.638Z,62.80
2022-11-10T14:05:38.485Z,63.70
2022-11-10T14:08:13.621Z,66.20
2022-11-10T14:11:07.586Z,63.20
2022-11-10T14:13:50.908Z,62.50
2022-11-10T14:16:28.546Z,65.30
2022-11-10T14:19:13.870Z,65.40
2022-11-10T14:21:55.438Z,61.50
2022-11-10T14:24:35.599Z,64.50
2022-11-10T14:27:13.448Z,63.60
2022-11-10T14:29:41.169Z,63.00
2022-11-10T14:32:24.724Z,64.60
2022-11-10T14:34:55.492Z,59.80
2022-11-10T14:37:25.822Z,64.20
2022-11-10T14:39:56.801Z,61.90
2022-11-10T14:42:31.097Z,65.90
2022-11-10T14:45:15.311Z,64.30
2022-11-10T14:47:42.742Z,63.40
2022-11-10T14:50:22.218Z,66.50
2022-11-10T14:53:06.473Z,64.10
2022-11-10T14:55:36.631Z,66.30
2022-11-10T14:58:14.925Z,66.40
2022-11-10T15:00:44.415Z,66.60
2022-11-10T15:03:29.829Z,67.10
2022-11-10T15:05:57.163Z,66.10
2022-11-10T15:08:24.698Z,67.30
2022-11-10T15:10:53.361Z,67.60
2022-11-10T15:13:39.630Z,67.80
2022-11-10T15:16:31.656Z,65.60
2022-11-10T15:19:21.996Z,65.50
2022-11-10T15:21:49.469Z,65.30
2022-11-10T15:24:18.205Z,68.20
2022-11-10T15:26:45.611Z,68.10
2022-11-10T15:29:22.209Z,68.10
2022-11-10T15:31:52.403Z,66.50
2022-11-10T15:34:50.575Z,68.30
2022-11-10T15:37:30.305Z,65.50
2022-11-10T15:40:30.178Z,67.90
2022-11-10T15:43:13.006Z,66.10
2022-11-10T15:45:40.807Z,66.10
2022-11-10T15:48:16.896Z,68.40
2022-11-10T15:50:52.359Z,67.20
2022-11-10T15:53:35.510Z,67.90
2022-11-10T15:56:02.302Z,68.20
2022-11-10T15:58:29.287Z,68.90
2022-11-10T16:00:56.220Z,69.00
2022-11-10T16:03:24.276Z,69.10
2022-11-10T16:05:51.118Z,69.10
2022-11-10T16:08:22.403Z,69.10
2022-11-10T16:10:53.726Z,69.00
2022-11-10T16:13:29.263Z,69.20
2022-11-10T16:15:58.352Z,69.10
2022-11-10T16:18:30.205Z,69.50
2022-11-10T16:20:57.777Z,69.50
2022-11-10T16:23:26.218Z,69.80
2022-11-10T16:25:56.176Z,70.00
2022-11-10T16:28:28.009Z,70.10
2022-11-10T16:30:55.412Z,69.60
2022-11-10T16:33:24.587Z,70.20
2022-11-10T16:35:54.409Z,70.20
2022-11-10T16:38:30.184Z,70.40
2022-11-10T16:41:10.990Z,69.60
2022-11-10T16:43:38.072Z,69.70
2022-11-10T16:46:24.358Z,70.60
2022-11-10T16:48:57.983Z,70.50
2022-11-10T16:51:29.797Z,70.40
2022-11-10T16:53:59.463Z,70.50
2022-11-10T16:56:27.337Z,71.30
2022-11-10T16:58:55.287Z,71.00
2022-11-10T17:01:28.031Z,71.00
2022-11-10T17:04:00.955Z,71.10
2022-11-10T17:06:29.602Z,71.10
2022-11-10T17:09:05.350Z,71.50
2022-11-10T17:11:32.112Z,71.50
2022-11-10T17:13:58.899Z,71.70
2022-11-10T17:16:38.288Z,71.70
2022-11-10T17:19:07.900Z,70.80
2022-11-10T17:21:36.515Z,71.70
2022-11-10T17:24:05.241Z,71.80
2022-11-10T17:26:34.178Z,71.90
2022-11-10T17:29:01.054Z,72.00
2022-11-10T17:31:27.853Z,72.10
2022-11-10T17:33:54.686Z,72.10
2022-11-10T17:36:23.660Z,72.10
2022-11-10T17:38:52.300Z,72.50
2022-11-10T17:41:20.241Z,72.20
2022-11-10T17:43:47.767Z,72.30
2022-11-10T17:46:15.371Z,72.30
2022-11-10T17:48:43.057Z,72.40
2022-11-10T17:51:20.928Z,72.50
2022-11-10T17:53:47.803Z,72.00
2022-11-10T17:56:14.676Z,72.60
2022-11-10T17:58:41.667Z,72.60
2022-11-10T18:01:19.768Z,72.80
2022-11-10T18:03:50.900Z,72.10
2022-11-10T18:06:20.852Z,72.80
2022-11-10T18:08:48.108Z,73.00
2022-11-10T18:11:18.118Z,73.10
2022-11-10T18:13:45.719Z,73.10
2022-11-10T18:16:14.174Z,73.20
2022-11-10T18:18:41.983Z,73.10
2022-11-10T18:21:10.010Z,73.20
2022-11-10T18:23:36.991Z,73.30
2022-11-10T18:26:08.976Z,73.30
2022-11-10T18:28:36.330Z,73.30
2022-11-10T18:31:13.112Z,73.30
2022-11-10T18:33:40.572Z,72.90
2022-11-10T18:36:08.812Z,73.30
2022-11-10T18:38:35.955Z,73.40
2022-11-10T18:41:25.797Z,73.50
2022-11-10T18:43:52.903Z,73.30
2022-11-10T18:46:19.852Z,74.10
2022-11-10T18:48:47.662Z,73.70
2022-11-10T18:51:16.293Z,73.70
2022-11-10T18:53:43.332Z,73.80
2022-11-10T18:56:10.166Z,73.80
2022-11-10T18:58:37.098Z,74.00
2022-11-10T19:01:09.830Z,74.00
2022-11-10T19:03:37.651Z,73.90
2022-11-10T19:06:05.705Z,74.10
2022-11-10T19:08:32.587Z,74.20
2022-11-10T19:10:59.713Z,74.20
2022-11-10T19:13:26.704Z,74.20
2022-11-10T19:15:55.679Z,74.20
2022-11-10T19:18:22.534Z,74.30
2022-11-10T19:20:49.365Z,74.30
2022-11-10T19:23:16.180Z,74.30
2022-11-10T19:25:43.170Z,74.40
2022-11-10T19:28:11.628Z,74.50
2022-11-10T19:30:39.605Z,74.50
2022-11-10T19:33:06.601Z,74.60
2022-11-10T19:35:33.430Z,74.70
2022-11-10T19:38:00.264Z,74.60
2022-11-10T19:40:27.110Z,74.70
2022-11-10T19:42:54.008Z,74.80
2022-11-10T19:45:20.795Z,74.90
2022-11-10T19:47:47.646Z,74.80
2022-11-10T19:50:14.485Z,74.90
2022-11-10T19:52:41.312Z,74.80
2022-11-10T19:55:08.325Z,74.90
2022-11-10T19:57:35.113Z,74.90
2022-11-10T20:00:02.014Z,74.80
2022-11-10T20:02:28.869Z,74.80
2022-11-10T20:05:15.846Z,74.80
2022-11-10T20:08:06.303Z,74.80
2022-11-10T20:10:40.245Z,74.80
2022-11-10T20:13:09.465Z,74.80
2022-11-10T20:15:41.977Z,74.80
2022-11-10T20:18:10.848Z,74.80
2022-11-10T20:20:39.213Z,75.00
2022-11-10T20:23:08.583Z,75.00
2022-11-10T20:25:35.484Z,75.00
2022-11-10T20:28:05.943Z,75.20
2022-11-10T20:30:35.708Z,75.30
2022-11-10T20:33:05.100Z,75.30
2022-11-10T20:35:32.775Z,75.30
2022-11-10T20:37:59.575Z,76.00
2022-11-10T20:40:43.369Z,75.50
2022-11-10T20:43:11.751Z,75.50
2022-11-10T20:45:39.298Z,75.60
2022-11-10T20:48:06.237Z,75.60
2022-11-10T20:50:33.130Z,75.60
2022-11-10T20:53:00.029Z,75.70
2022-11-10T20:55:52.269Z,75.70
2022-11-10T20:58:13.903Z,75.70
2022-11-10T21:00:44.337Z,75.70
2022-11-10T21:03:11.248Z,75.50
2022-11-10T21:05:40.755Z,75.70
2022-11-10T21:08:07.549Z,75.80
2022-11-10T21:10:34.370Z,75.70
2022-11-10T21:13:01.391Z,75.80
2022-11-10T21:15:28.240Z,75.70
2022-11-10T21:17:58.087Z,75.80
2022-11-10T21:20:24.910Z,75.80
2022-11-10T21:22:52.816Z,75.80
2022-11-10T21:25:20.526Z,75.90
2022-11-10T21:27:47.980Z,75.90
2022-11-10T21:30:22.867Z,75.90
2022-11-10T21:32:49.927Z,76.00
2022-11-10T21:35:17.457Z,76.00
2022-11-10T21:37:44.502Z,75.80
2022-11-10T21:40:12.641Z,75.80
2022-11-10T21:42:39.450Z,75.80
2022-11-10T21:45:08.175Z,75.80
2022-11-10T21:47:35.142Z,76.30
2022-11-10T21:50:01.940Z,75.70
2022-11-10T21:52:32.625Z,75.70
2022-11-10T21:54:59.956Z,75.40
2022-11-10T21:57:26.822Z,75.50
2022-11-10T21:59:53.641Z,75.50
2022-11-10T22:02:20.500Z,75.50
2022-11-10T22:04:47.333Z,75.50
2022-11-10T22:07:22.987Z,75.50
2022-11-10T22:10:12.878Z,75.70
2022-11-10T22:12:59.446Z,75.90
2022-11-10T22:15:45.993Z,75.90
2022-11-10T22:18:35.277Z,75.80
2022-11-10T22:21:07.899Z,75.90
2022-11-10T22:23:53.337Z,76.00
2022-11-10T22:26:20.514Z,76.00
2022-11-10T22:28:47.502Z,76.10
2022-11-10T22:31:14.608Z,76.10
2022-11-10T22:33:43.478Z,76.20
2022-11-10T22:36:16.657Z,76.10
2022-11-10T22:38:43.557Z,76.10
2022-11-10T22:41:35.439Z,76.40
2022-11-10T22:44:06.399Z,76.20
2022-11-10T22:46:39.900Z,76.40
2022-11-10T22:49:14.127Z,76.30
2022-11-10T22:51:42.479Z,76.30
2022-11-10T22:54:12.994Z,76.50
2022-11-10T22:56:40.834Z,76.50
2022-11-10T22:59:08.531Z,76.50
2022-11-10T23:01:36.913Z,76.50
2022-11-10T23:04:04.463Z,76.40
2022-11-10T23:06:32.199Z,76.40
2022-11-10T23:08:59.791Z,76.40
2022-11-10T23:11:30.933Z,76.40
2022-11-10T23:13:58.268Z,76.40
2022-11-10T23:16:31.904Z,76.40
2022-11-10T23:18:59.457Z,76.20
2022-11-10T23:26:43.527Z,76.50
2022-11-10T23:29:10.647Z,76.60
2022-11-10T23:31:37.468Z,76.60
2022-11-10T23:34:04.319Z,76.60
2022-11-10T23:36:33.900Z,76.60
2022-11-10T23:39:00.735Z,76.60
2022-11-10T23:41:27.585Z,76.50
2022-11-10T23:43:54.458Z,76.40
2022-11-10T23:46:21.503Z,76.40
2022-11-10T23:48:48.381Z,76.30
2022-11-10T23:51:16.312Z,76.30
2022-11-10T23:53:43.253Z,76.30
2022-11-10T23:56:13.761Z,76.30
2022-11-10T23:58:41.363Z,76.40
